createdAt,value
2023-01-13T00:00:51.533Z,19.67
2023-01-13T00:03:18.464Z,20.25
2023-01-13T00:05:45.028Z,27.02
2023-01-13T00:08:11.533Z,18.13
2023-01-13T00:10:38.051Z,21.80
2023-01-13T00:13:05.900Z,27.65
2023-01-13T00:15:33.861Z,21.13
2023-01-13T00:18:00.919Z,24.08
2023-01-13T00:20:27.923Z,21.88
2023-01-13T00:22:55.590Z,28.23
2023-01-13T00:25:22.147Z,31.33
2023-01-13T00:27:49.107Z,22.48
2023-01-13T00:30:16.418Z,28.33
2023-01-13T00:32:42.995Z,24.02
2023-01-13T00:35:09.606Z,28.70
2023-01-13T00:37:37.953Z,19.90
2023-01-13T00:40:06.019Z,30.13
2023-01-13T00:42:51.269Z,33.95
2023-01-13T00:45:18.252Z,31.92
2023-01-13T00:47:44.817Z,29.23
2023-01-13T00:50:11.387Z,30.02
2023-01-13T00:52:39.597Z,31.95
2023-01-13T00:55:08.083Z,27.15
2023-01-13T00:57:34.909Z,28.80
2023-01-13T01:00:02.505Z,20.80
2023-01-13T01:02:29.054Z,20.15
2023-01-13T01:04:55.601Z,43.10
2023-01-13T01:07:22.689Z,34.10
2023-01-13T01:09:50.331Z,46.00
2023-01-13T01:12:17.426Z,33.78
2023-01-13T01:14:44.538Z,28.83
2023-01-13T01:17:11.051Z,25.27
2023-01-13T01:19:38.766Z,28.83
2023-01-13T01:22:05.486Z,24.35
2023-01-13T01:24:32.042Z,29.30
2023-01-13T01:26:59.127Z,22.10
2023-01-13T01:29:26.160Z,34.70
2023-01-13T01:31:53.160Z,28.17
2023-01-13T01:34:20.148Z,28.77
2023-01-13T01:36:47.612Z,32.13
2023-01-13T01:39:14.126Z,27.10
2023-01-13T01:42:00.648Z,17.45
2023-01-13T01:44:42.174Z,30.38
2023-01-13T01:47:18.072Z,26.63
2023-01-13T01:49:46.067Z,34.28
2023-01-13T01:52:40.300Z,32.53
2023-01-13T01:55:13.648Z,40.80
2023-01-13T01:57:49.778Z,32.42
2023-01-13T02:00:16.624Z,48.58
2023-01-13T02:02:46.328Z,39.95
2023-01-13T02:05:13.939Z,34.78
2023-01-13T02:07:43.204Z,33.25
2023-01-13T02:10:14.654Z,33.58
2023-01-13T02:12:45.459Z,28.88
2023-01-13T02:15:18.410Z,32.38
2023-01-13T02:17:54.229Z,39.00
2023-01-13T02:20:54.875Z,36.92
2023-01-13T02:24:13.535Z,32.88
2023-01-13T02:27:22.852Z,38.05
2023-01-13T02:30:26.919Z,41.75
2023-01-13T02:33:06.199Z,31.77
2023-01-13T02:35:52.996Z,33.25
2023-01-13T02:38:26.332Z,37.63
2023-01-13T02:41:27.361Z,29.15
2023-01-13T02:44:10.508Z,30.83
2023-01-13T02:47:06.273Z,36.30
2023-01-13T02:49:41.564Z,37.47
2023-01-13T02:52:28.548Z,30.90
2023-01-13T02:55:00.365Z,43.50
2023-01-13T02:57:31.600Z,34.05
2023-01-13T02:59:58.674Z,44.65
2023-01-13T03:02:26.439Z,39.92
2023-01-13T03:04:59.223Z,40.63
2023-01-13T03:07:35.335Z,33.28
2023-01-13T03:10:11.754Z,36.65
2023-01-13T03:13:12.660Z,34.67
2023-01-13T03:15:54.104Z,29.25
2023-01-13T03:18:23.765Z,38.13
2023-01-13T03:21:04.040Z,42.65
2023-01-13T03:23:37.663Z,40.65
2023-01-13T03:26:41.569Z,37.70
2023-01-13T03:29:18.018Z,41.03
2023-01-13T03:32:00.231Z,26.65
2023-01-13T03:34:46.689Z,36.33
2023-01-13T03:37:18.071Z,36.92
2023-01-13T03:39:55.902Z,33.22
2023-01-13T03:42:26.432Z,36.38
2023-01-13T03:45:00.638Z,29.27
2023-01-13T03:47:55.537Z,30.27
2023-01-13T03:50:33.114Z,39.78
2023-01-13T03:53:09.318Z,24.05
2023-01-13T03:55:40.173Z,35.15
2023-01-13T03:58:15.372Z,24.08
2023-01-13T04:00:50.847Z,32.85
2023-01-13T04:03:30.277Z,28.67
2023-01-13T04:06:05.057Z,29.55
2023-01-13T04:08:35.316Z,28.30
2023-01-13T04:11:18.640Z,33.42
2023-01-13T04:13:49.178Z,29.02
2023-01-13T04:16:16.182Z,25.75
2023-01-13T04:18:42.775Z,27.23
2023-01-13T04:21:09.879Z,23.75
2023-01-13T04:23:37.065Z,36.05
2023-01-13T04:26:04.179Z,26.80
2023-01-13T04:28:31.285Z,25.83
2023-01-13T04:30:57.883Z,32.47
2023-01-13T04:33:25.048Z,17.83
2023-01-13T04:35:52.734Z,22.52
2023-01-13T04:38:21.042Z,16.58
2023-01-13T04:40:48.504Z,18.90
2023-01-13T04:43:16.034Z,16.20
2023-01-13T04:45:43.381Z,19.38
2023-01-13T04:48:10.556Z,22.75
2023-01-13T04:50:37.741Z,19.63
2023-01-13T04:53:04.823Z,29.23
2023-01-13T04:55:32.120Z,28.23
2023-01-13T04:58:07.164Z,19.88
2023-01-13T05:03:01.577Z,23.60
2023-01-13T05:05:29.778Z,18.90
2023-01-13T05:07:57.981Z,24.70
2023-01-13T05:10:25.135Z,15.60
2023-01-13T05:13:10.195Z,21.83
2023-01-13T05:15:55.440Z,12.50
2023-01-13T05:18:22.783Z,22.23
2023-01-13T05:20:50.454Z,13.55
2023-01-13T05:23:36.645Z,17.65
2023-01-13T05:26:04.687Z,16.83
2023-01-13T05:28:33.184Z,19.42
2023-01-13T05:31:00.257Z,14.02
2023-01-13T05:33:26.952Z,9.20
2023-01-13T05:35:53.477Z,23.38
2023-01-13T05:38:20.509Z,23.52
2023-01-13T05:41:05.587Z,24.05
2023-01-13T05:43:33.172Z,24.35
2023-01-13T05:46:02.934Z,21.63
2023-01-13T05:48:37.054Z,16.42
2023-01-13T05:51:05.684Z,11.35
2023-01-13T05:53:32.435Z,17.77
2023-01-13T05:55:59.735Z,10.55
2023-01-13T05:58:28.453Z,11.82
2023-01-13T06:01:01.312Z,11.98
2023-01-13T06:03:28.428Z,15.23
2023-01-13T06:06:01.480Z,19.85
2023-01-13T06:08:28.538Z,19.50
2023-01-13T06:10:55.067Z,24.35
2023-01-13T06:13:22.256Z,15.88
2023-01-13T06:15:49.000Z,21.77
2023-01-13T06:18:15.835Z,24.42
2023-01-13T06:20:42.883Z,19.85
2023-01-13T06:23:11.796Z,14.82
2023-01-13T06:26:04.916Z,19.98
2023-01-13T06:28:33.289Z,12.43
2023-01-13T06:31:06.164Z,18.80
2023-01-13T06:33:55.296Z,22.58
2023-01-13T06:36:30.980Z,14.77
2023-01-13T06:39:01.390Z,19.30
2023-01-13T06:41:48.696Z,18.30
2023-01-13T06:44:15.316Z,16.45
2023-01-13T06:46:41.916Z,15.23
2023-01-13T06:49:09.479Z,16.20
2023-01-13T06:51:36.560Z,19.02
2023-01-13T06:54:03.621Z,15.82
2023-01-13T06:56:30.191Z,12.95
2023-01-13T06:58:56.763Z,14.85
2023-01-13T07:01:23.506Z,21.75
2023-01-13T07:03:50.130Z,21.80
2023-01-13T07:06:16.628Z,23.40
2023-01-13T07:08:43.127Z,18.15
2023-01-13T07:11:09.709Z,15.85
2023-01-13T07:13:54.896Z,14.20
2023-01-13T07:16:21.601Z,16.58
2023-01-13T07:18:48.137Z,26.05
2023-01-13T07:21:18.802Z,15.65
2023-01-13T07:23:45.821Z,21.30
2023-01-13T07:26:12.433Z,17.02
2023-01-13T07:28:39.996Z,24.48
2023-01-13T07:31:14.529Z,19.15
2023-01-13T07:33:41.172Z,17.85
2023-01-13T07:36:08.385Z,14.43
2023-01-13T07:38:35.097Z,21.02
2023-01-13T07:41:22.012Z,26.00
2023-01-13T07:43:48.596Z,17.27
2023-01-13T07:46:15.967Z,20.80
2023-01-13T07:48:42.592Z,22.55
2023-01-13T07:51:11.786Z,25.35
2023-01-13T07:53:39.074Z,16.60
2023-01-13T07:56:07.166Z,14.48
2023-01-13T07:58:35.375Z,17.60
2023-01-13T08:01:12.377Z,25.30
2023-01-13T08:03:40.410Z,26.73
2023-01-13T08:06:07.443Z,19.73
2023-01-13T08:08:34.864Z,24.95
2023-01-13T08:11:06.397Z,25.17
2023-01-13T08:13:33.317Z,16.15
2023-01-13T08:16:03.359Z,33.50
2023-01-13T08:18:32.077Z,17.63
2023-01-13T08:21:02.792Z,13.93
2023-01-13T08:23:29.462Z,26.52
2023-01-13T08:26:10.552Z,19.02
2023-01-13T08:28:37.639Z,18.23
2023-01-13T08:31:06.224Z,28.25
2023-01-13T08:33:34.043Z,22.85
2023-01-13T08:36:06.711Z,22.85
2023-01-13T08:38:34.789Z,16.63
2023-01-13T08:41:02.865Z,16.55
2023-01-13T08:43:29.921Z,21.05
2023-01-13T08:45:59.223Z,39.22
2023-01-13T08:48:26.744Z,18.80
2023-01-13T08:50:53.440Z,20.33
2023-01-13T08:53:21.029Z,25.27
2023-01-13T08:55:47.619Z,29.50
2023-01-13T08:58:16.303Z,23.77
2023-01-13T09:00:43.552Z,29.77
2023-01-13T09:03:10.136Z,24.52
2023-01-13T09:05:37.418Z,15.27
2023-01-13T09:08:04.558Z,21.50
2023-01-13T09:10:31.852Z,20.98
2023-01-13T09:13:13.982Z,17.85
2023-01-13T09:15:50.158Z,29.77
2023-01-13T09:18:16.763Z,34.40
2023-01-13T09:20:44.565Z,30.02
2023-01-13T09:23:11.600Z,16.67
2023-01-13T09:25:38.936Z,25.30
2023-01-13T09:28:05.964Z,21.38
2023-01-13T09:30:32.536Z,24.90
2023-01-13T09:33:18.544Z,23.70
2023-01-13T09:35:45.885Z,19.75
2023-01-13T09:38:12.465Z,22.05
2023-01-13T09:40:41.470Z,20.50
2023-01-13T09:43:53.796Z,19.55
2023-01-13T09:46:43.153Z,20.55
2023-01-13T09:49:20.737Z,23.40
2023-01-13T09:51:55.515Z,24.48
2023-01-13T09:54:28.484Z,14.30
2023-01-13T09:56:55.481Z,25.33
2023-01-13T09:59:22.525Z,23.33
2023-01-13T10:02:04.042Z,21.65
2023-01-13T10:04:31.268Z,18.65
2023-01-13T10:07:03.788Z,21.05
2023-01-13T10:09:34.502Z,17.48
2023-01-13T10:12:20.925Z,16.58
2023-01-13T10:14:57.563Z,19.75
2023-01-13T10:17:43.837Z,25.15
2023-01-13T10:20:27.255Z,22.20
2023-01-13T10:23:47.948Z,20.20
2023-01-13T10:26:26.909Z,15.25
2023-01-13T10:28:55.750Z,14.73
2023-01-13T10:31:23.900Z,22.73
2023-01-13T10:34:01.932Z,27.75
2023-01-13T10:36:29.046Z,17.27
2023-01-13T10:39:08.245Z,28.40
2023-01-13T10:41:36.224Z,24.50
2023-01-13T10:44:16.437Z,11.55
2023-01-13T10:46:55.583Z,17.90
2023-01-13T10:49:29.233Z,11.75
2023-01-13T10:51:55.798Z,15.23
2023-01-13T10:54:25.544Z,20.85
2023-01-13T10:57:18.316Z,17.23
2023-01-13T10:59:45.555Z,13.55
2023-01-13T11:02:29.604Z,17.30
2023-01-13T11:04:56.762Z,13.43
2023-01-13T11:07:49.481Z,20.73
2023-01-13T11:10:23.269Z,20.17
2023-01-13T11:13:02.166Z,12.18
2023-01-13T11:15:53.922Z,14.77
2023-01-13T11:18:31.122Z,20.02
2023-01-13T11:21:00.726Z,16.17
2023-01-13T11:23:35.777Z,16.40
2023-01-13T11:28:50.422Z,14.75
2023-01-13T11:31:54.272Z,16.50
2023-01-13T11:34:27.248Z,14.93
2023-01-13T11:36:57.314Z,10.27
2023-01-13T11:39:29.950Z,12.88
2023-01-13T11:42:20.575Z,21.02
2023-01-13T11:45:01.810Z,18.70
2023-01-13T11:47:29.021Z,11.70
2023-01-13T11:49:55.999Z,11.43
2023-01-13T11:52:40.777Z,15.15
2023-01-13T11:55:20.597Z,14.10
2023-01-13T11:58:10.299Z,25.55
2023-01-13T12:00:56.086Z,11.10
2023-01-13T12:03:30.935Z,12.93
2023-01-13T12:06:34.907Z,12.25
2023-01-13T12:09:21.277Z,10.20
2023-01-13T12:12:22.836Z,15.80
2023-01-13T12:15:21.068Z,16.02
2023-01-13T12:18:09.359Z,10.07
2023-01-13T12:20:59.997Z,15.23
2023-01-13T12:24:03.179Z,13.25
2023-01-13T12:26:36.223Z,20.05
2023-01-13T12:29:07.723Z,10.75
2023-01-13T12:31:39.221Z,12.38
2023-01-13T12:34:18.332Z,8.35
2023-01-13T12:36:56.024Z,15.57
2023-01-13T12:39:43.332Z,9.38
2023-01-13T12:42:42.593Z,22.00
2023-01-13T12:45:12.341Z,7.88
2023-01-13T12:47:48.472Z,15.32
2023-01-13T12:50:24.769Z,12.20
2023-01-13T12:52:55.331Z,16.02
2023-01-13T12:55:32.399Z,13.98
2023-01-13T12:58:08.089Z,11.82
2023-01-13T13:00:40.391Z,11.32
2023-01-13T13:03:12.713Z,13.35
2023-01-13T13:05:48.857Z,10.57
2023-01-13T13:08:41.442Z,8.82
2023-01-13T13:11:32.841Z,10.13
2023-01-13T13:14:05.287Z,8.23
2023-01-13T13:16:31.825Z,10.52
2023-01-13T13:19:23.055Z,12.90
2023-01-13T13:22:18.202Z,11.13
2023-01-13T13:24:57.618Z,13.18
2023-01-13T13:27:51.985Z,11.25
2023-01-13T13:30:28.037Z,6.80
2023-01-13T13:33:31.702Z,13.05
2023-01-13T13:36:11.452Z,13.43
2023-01-13T13:39:19.068Z,13.55
2023-01-13T13:42:09.163Z,9.48
2023-01-13T13:45:01.124Z,11.30
2023-01-13T13:47:36.130Z,14.75
2023-01-13T13:52:45.866Z,8.57
2023-01-13T13:55:21.698Z,9.98
2023-01-13T13:57:51.089Z,14.40
2023-01-13T14:00:23.578Z,10.65
2023-01-13T14:03:05.513Z,13.77
2023-01-13T14:05:37.329Z,18.20
2023-01-13T14:08:14.528Z,12.57
2023-01-13T14:10:46.255Z,9.43
2023-01-13T14:13:25.000Z,14.05
2023-01-13T14:15:59.247Z,10.25
2023-01-13T14:18:27.807Z,13.60
2023-01-13T14:21:00.003Z,11.15
2023-01-13T14:23:29.478Z,18.13
2023-01-13T14:26:01.270Z,14.13
2023-01-13T14:28:35.590Z,9.52
2023-01-13T14:31:02.700Z,13.27
2023-01-13T14:33:39.075Z,11.15
2023-01-13T14:36:19.239Z,14.52
2023-01-13T14:38:49.756Z,8.70
2023-01-13T14:41:27.885Z,10.40
2023-01-13T14:43:59.256Z,11.77
2023-01-13T14:46:37.242Z,12.63
2023-01-13T14:49:04.297Z,15.00
2023-01-13T14:51:32.079Z,17.75
2023-01-13T14:53:59.282Z,18.95
2023-01-13T14:56:47.128Z,12.02
2023-01-13T14:59:34.059Z,8.77
2023-01-13T15:02:21.091Z,15.60
2023-01-13T15:04:47.671Z,12.68
2023-01-13T15:07:27.815Z,13.43
2023-01-13T15:09:58.804Z,11.63
2023-01-13T15:12:39.381Z,15.38
2023-01-13T15:15:19.656Z,13.45
2023-01-13T15:17:46.899Z,9.55
2023-01-13T15:20:15.439Z,16.70
2023-01-13T15:22:42.086Z,11.75
2023-01-13T15:25:12.109Z,18.52
2023-01-13T15:27:39.107Z,16.75
2023-01-13T15:30:26.950Z,19.20
2023-01-13T15:32:55.707Z,14.57
2023-01-13T15:35:24.601Z,12.57
2023-01-13T15:37:51.935Z,10.30
2023-01-13T15:40:29.745Z,11.88
2023-01-13T15:43:14.925Z,10.80
2023-01-13T15:46:00.932Z,13.48
2023-01-13T15:48:32.096Z,9.77
2023-01-13T15:51:00.020Z,19.25
2023-01-13T15:53:27.815Z,13.70
2023-01-13T15:55:57.864Z,10.40
2023-01-13T15:58:28.281Z,8.50
2023-01-13T16:00:55.504Z,7.93
2023-01-13T16:03:22.309Z,6.75
2023-01-13T16:05:49.374Z,8.90
2023-01-13T16:08:20.128Z,11.55
2023-01-13T16:10:48.555Z,9.73
2023-01-13T16:13:16.822Z,11.60
2023-01-13T16:15:47.103Z,11.75
2023-01-13T16:18:19.360Z,11.57
2023-01-13T16:20:47.714Z,16.05
2023-01-13T16:23:14.355Z,9.73
2023-01-13T16:25:43.695Z,12.20
2023-01-13T16:28:21.002Z,12.95
2023-01-13T16:30:47.814Z,6.72
2023-01-13T16:33:14.763Z,11.63
2023-01-13T16:36:07.659Z,12.18
2023-01-13T16:38:28.517Z,10.90
2023-01-13T16:40:57.748Z,9.05
2023-01-13T16:43:24.872Z,3.58
2023-01-13T16:45:51.413Z,11.30
2023-01-13T16:48:20.337Z,6.80
2023-01-13T16:50:47.588Z,5.47
2023-01-13T16:53:14.338Z,10.95
2023-01-13T16:55:42.171Z,8.43
2023-01-13T16:58:26.968Z,12.52
2023-01-13T17:00:53.569Z,14.20
2023-01-13T17:03:20.177Z,12.85
2023-01-13T17:05:47.598Z,8.13
2023-01-13T17:08:17.685Z,13.32
2023-01-13T17:10:45.688Z,17.00
2023-01-13T17:13:16.244Z,16.48
2023-01-13T17:15:44.325Z,6.18
2023-01-13T17:18:13.242Z,13.00
2023-01-13T17:20:40.671Z,17.30
2023-01-13T17:23:07.218Z,10.93
2023-01-13T17:25:33.944Z,61.60
2023-01-13T17:28:00.499Z,18.35
2023-01-13T17:30:27.045Z,17.10
2023-01-13T17:32:53.575Z,16.45
2023-01-13T17:35:24.600Z,11.15
2023-01-13T17:37:52.916Z,8.55
2023-01-13T17:40:19.845Z,9.35
2023-01-13T17:42:46.391Z,17.33
2023-01-13T17:45:13.535Z,6.45
2023-01-13T17:47:40.098Z,11.50
2023-01-13T17:50:07.038Z,10.45
2023-01-13T17:52:34.142Z,10.57
2023-01-13T17:55:01.288Z,5.35
2023-01-13T17:57:28.010Z,11.50
2023-01-13T17:59:55.122Z,10.20
2023-01-13T18:02:21.764Z,9.98
2023-01-13T18:04:48.480Z,8.63
2023-01-13T18:07:15.018Z,8.88
2023-01-13T18:09:41.633Z,14.98
2023-01-13T18:12:08.259Z,11.27
2023-01-13T18:14:34.956Z,9.40
2023-01-13T18:17:01.582Z,10.90
2023-01-13T18:19:46.754Z,15.15
2023-01-13T18:22:32.992Z,9.18
2023-01-13T18:25:22.072Z,16.52
2023-01-13T18:27:48.742Z,16.55
2023-01-13T18:30:16.027Z,14.13
2023-01-13T18:32:42.621Z,8.23
2023-01-13T18:35:10.526Z,18.13
2023-01-13T18:37:40.061Z,8.45
2023-01-13T18:40:07.954Z,13.50
2023-01-13T18:42:54.270Z,17.48
2023-01-13T18:45:24.925Z,11.00
2023-01-13T18:47:52.374Z,9.70
2023-01-13T18:50:19.109Z,6.75
2023-01-13T18:52:45.946Z,11.45
2023-01-13T18:55:13.048Z,10.05
2023-01-13T18:57:40.433Z,13.65
2023-01-13T19:00:10.444Z,10.60
2023-01-13T19:02:37.690Z,6.45
2023-01-13T19:05:05.248Z,8.85
2023-01-13T19:07:34.615Z,9.43
2023-01-13T19:10:01.692Z,8.38
2023-01-13T19:12:28.284Z,15.10
2023-01-13T19:14:55.639Z,13.30
2023-01-13T19:17:24.296Z,19.70
2023-01-13T19:19:53.691Z,16.73
2023-01-13T19:22:23.465Z,14.75
2023-01-13T19:24:50.684Z,9.40
2023-01-13T19:27:19.037Z,13.70
2023-01-13T19:29:51.968Z,19.33
2023-01-13T19:32:20.993Z,8.65
2023-01-13T19:34:49.419Z,12.68
2023-01-13T19:37:16.089Z,13.63
2023-01-13T19:39:43.035Z,6.38
2023-01-13T19:42:30.578Z,16.48
2023-01-13T19:45:15.776Z,6.65
2023-01-13T19:47:43.951Z,6.45
2023-01-13T19:50:13.789Z,7.93
2023-01-13T19:52:41.625Z,8.13
2023-01-13T19:55:09.604Z,4.65
2023-01-13T19:57:36.968Z,9.35
2023-01-13T20:00:06.602Z,8.65
2023-01-13T20:02:33.769Z,3.72
2023-01-13T20:05:03.443Z,10.32
2023-01-13T20:07:30.809Z,11.52
2023-01-13T20:09:57.845Z,12.63
2023-01-13T20:12:26.567Z,14.13
2023-01-13T20:14:53.204Z,7.13
2023-01-13T20:17:21.632Z,14.98
2023-01-13T20:19:48.495Z,8.27
2023-01-13T20:22:15.812Z,12.20
2023-01-13T20:24:42.874Z,8.63
2023-01-13T20:27:09.714Z,9.50
2023-01-13T20:29:36.955Z,11.48
2023-01-13T20:32:04.283Z,14.82
2023-01-13T20:34:31.370Z,12.82
2023-01-13T20:36:57.966Z,7.10
2023-01-13T20:39:28.949Z,13.25
2023-01-13T20:42:14.359Z,6.95
2023-01-13T20:47:08.805Z,14.43
2023-01-13T20:49:38.496Z,6.68
2023-01-13T20:52:09.483Z,10.85
2023-01-13T20:54:40.589Z,10.48
2023-01-13T20:57:09.975Z,11.07
2023-01-13T20:59:38.852Z,11.95
2023-01-13T21:02:07.932Z,5.55
2023-01-13T21:04:34.518Z,9.43
2023-01-13T21:07:01.058Z,9.43
2023-01-13T21:09:27.825Z,12.43
2023-01-13T21:12:13.035Z,12.77
2023-01-13T21:14:58.259Z,15.07
2023-01-13T21:17:44.089Z,16.05
2023-01-13T21:20:13.669Z,9.70
2023-01-13T21:22:43.920Z,16.25
2023-01-13T21:25:12.345Z,14.00
2023-01-13T21:27:39.251Z,11.00
2023-01-13T21:30:07.650Z,12.75
2023-01-13T21:32:34.903Z,11.38
2023-01-13T21:35:02.146Z,17.38
2023-01-13T21:37:28.800Z,15.55
2023-01-13T21:39:55.558Z,13.88
2023-01-13T21:42:40.740Z,17.33
2023-01-13T21:45:28.839Z,34.50
2023-01-13T21:47:56.207Z,12.73
2023-01-13T21:50:26.728Z,12.50
2023-01-13T21:52:54.104Z,13.25
2023-01-13T21:55:29.276Z,9.18
2023-01-13T21:58:01.938Z,8.15
2023-01-13T22:00:31.308Z,23.05
2023-01-13T22:02:58.902Z,16.30
2023-01-13T22:05:26.814Z,15.15
2023-01-13T22:07:53.707Z,17.65
2023-01-13T22:10:26.606Z,18.13
2023-01-13T22:12:54.683Z,11.25
2023-01-13T22:15:25.365Z,10.88
2023-01-13T22:17:53.614Z,15.52
2023-01-13T22:20:21.079Z,13.77
2023-01-13T22:22:47.859Z,21.80
2023-01-13T22:25:16.254Z,12.70
2023-01-13T22:27:44.601Z,13.32
2023-01-13T22:30:14.145Z,16.95
2023-01-13T22:32:40.897Z,13.27
2023-01-13T22:35:10.475Z,17.00
2023-01-13T22:37:37.722Z,14.15
2023-01-13T22:40:06.809Z,19.38
2023-01-13T22:42:38.051Z,15.50
2023-01-13T22:45:07.199Z,9.85
2023-01-13T22:47:34.026Z,15.65
2023-01-13T22:50:00.621Z,9.13
2023-01-13T22:52:28.553Z,11.27
2023-01-13T22:54:55.623Z,17.92
2023-01-13T22:57:23.953Z,13.40
2023-01-13T22:59:51.158Z,15.35
2023-01-13T23:02:20.085Z,16.73
2023-01-13T23:04:47.116Z,16.33
2023-01-13T23:07:14.196Z,5.47
2023-01-13T23:09:40.717Z,13.05
2023-01-13T23:12:07.300Z,16.35
2023-01-13T23:14:33.881Z,11.90
2023-01-13T23:17:00.969Z,16.70
2023-01-13T23:19:27.979Z,8.85
2023-01-13T23:21:55.022Z,14.00
2023-01-13T23:24:25.868Z,25.27
2023-01-13T23:26:53.343Z,11.07
2023-01-13T23:29:20.844Z,11.18
2023-01-13T23:31:47.942Z,9.75
2023-01-13T23:34:15.269Z,17.63
2023-01-13T23:36:43.751Z,12.55
2023-01-13T23:39:10.932Z,10.00
2023-01-13T23:41:37.539Z,10.63
2023-01-13T23:44:04.704Z,13.05
2023-01-13T23:46:33.050Z,11.18
2023-01-13T23:49:02.146Z,27.08
2023-01-13T23:51:30.130Z,17.77
2023-01-13T23:53:58.223Z,13.88
2023-01-13T23:56:27.911Z,16.55
2023-01-13T23:58:55.207Z,12.07
